Time;durP1;ratioP1;P1;durP2;ratioP2;P2;SDS_P1;SDS_P2;PMS_P1;PMS_P2;Temp;Humidity;BMP_temperature;BMP_pressure;BME280_temperature;BME280_humidity;BME280_pressure;Samples;Min_cycle;Max_cycle;Signal;HPM_P1;HPM_P2
2023/05/12 00:01:18;;;;;;;2.83;2.05;;;;;18.60;101508.00;;;;5065718;28;20212;-78
2023/05/12 00:03:46;;;;;;;3.75;1.92;;;;;18.60;101508.00;;;;5048304;28;20249;-78
2023/05/12 00:06:13;;;;;;;2.90;2.08;;;;;18.60;101503.00;;;;5047976;28;20273;-78
2023/05/12 00:08:40;;;;;;;2.45;1.70;;;;;18.50;101510.00;;;;5058838;28;20206;-78
2023/05/12 00:11:08;;;;;;;3.67;2.63;;;;;18.50;101508.00;;;;5068588;28;20187;-77
2023/05/12 00:13:36;;;;;;;4.88;2.58;;;;;18.50;101505.00;;;;5060322;28;20306;-78
2023/05/12 00:16:04;;;;;;;2.90;2.05;;;;;18.50;101497.00;;;;5048630;28;20203;-78
2023/05/12 00:18:32;;;;;;;4.18;3.03;;;;;18.50;101505.00;;;;5048595;28;20191;-78
2023/05/12 00:20:59;;;;;;;3.38;2.38;;;;;18.50;101505.00;;;;5068475;28;20686;-77
2023/05/12 00:23:26;;;;;;;2.63;2.10;;;;;18.40;101503.00;;;;5068333;28;20195;-77
2023/05/12 00:25:54;;;;;;;3.03;2.13;;;;;18.40;101501.00;;;;5067516;28;20210;-78
2023/05/12 00:28:21;;;;;;;5.68;2.38;;;;;18.30;101504.00;;;;5068850;28;20194;-78
2023/05/12 00:30:49;;;;;;;2.90;2.38;;;;;18.30;101502.00;;;;5067326;28;20898;-78
2023/05/12 00:33:17;;;;;;;3.55;2.58;;;;;18.30;101492.00;;;;5066549;28;20226;-77
2023/05/12 00:35:45;;;;;;;3.38;2.45;;;;;18.30;101494.00;;;;5067528;28;20226;-78
2023/05/12 00:38:12;;;;;;;2.63;2.30;;;;;18.30;101492.00;;;;5061483;28;20210;-78
2023/05/12 00:40:40;;;;;;;2.80;2.05;;;;;18.30;101491.00;;;;5052243;28;20207;-77
2023/05/12 00:43:07;;;;;;;2.83;2.15;;;;;18.20;101484.00;;;;5051948;28;20298;-77
2023/05/12 00:45:34;;;;;;;3.78;2.13;;;;;18.20;101489.00;;;;5052286;28;20195;-78
2023/05/12 00:48:04;;;;;;;7.30;2.72;;;;;18.20;101491.00;;;;5051618;28;21007;-78
2023/05/12 00:50:32;;;;;;;2.67;2.15;;;;;18.20;101488.00;;;;5061633;28;20879;-78
2023/05/12 00:53:01;;;;;;;2.28;1.90;;;;;18.20;101490.00;;;;5065922;28;20211;-78
2023/05/12 00:55:30;;;;;;;2.35;1.65;;;;;18.20;101489.00;;;;5056232;28;20739;-78
2023/05/12 00:57:57;;;;;;;2.65;1.98;;;;;18.30;101492.00;;;;5051600;28;20253;-78
2023/05/12 01:00:25;;;;;;;2.67;1.83;;;;;18.20;101487.00;;;;5052621;28;20196;-77
2023/05/12 01:02:52;;;;;;;3.45;2.30;;;;;18.20;101485.00;;;;5051796;28;20199;-77
2023/05/12 01:05:21;;;;;;;2.72;2.22;;;;;18.20;101485.00;;;;5051637;28;20200;-78
2023/05/12 01:07:49;;;;;;;2.95;2.10;;;;;18.20;101485.00;;;;5053555;28;20207;-78
2023/05/12 01:10:20;;;;;;;3.00;1.98;;;;;18.20;101484.00;;;;5052121;28;20203;-77
2023/05/12 01:12:48;;;;;;;4.13;2.58;;;;;18.20;101480.00;;;;5052079;28;20231;-77
2023/05/12 01:15:15;;;;;;;4.20;1.52;;;;;18.20;101471.00;;;;5052001;28;20316;-78
2023/05/12 01:17:50;;;;;;;2.13;1.70;;;;;18.10;101470.00;;;;5052414;28;20557;-78
2023/05/12 01:20:22;;;;;;;5.68;2.30;;;;;18.20;101466.00;;;;5051699;28;20203;-78
2023/05/12 01:22:50;;;;;;;2.45;2.10;;;;;18.20;101470.00;;;;5051250;28;20207;-78
2023/05/12 01:25:19;;;;;;;2.40;1.77;;;;;18.20;101463.00;;;;5060590;28;20221;-77
2023/05/12 01:27:48;;;;;;;2.40;1.50;;;;;18.10;101460.00;;;;5061424;28;20739;-78
2023/05/12 01:30:18;;;;;;;3.63;2.30;;;;;18.20;101462.00;;;;5051423;28;20677;-78
2023/05/12 01:32:45;;;;;;;1.35;1.23;;;;;18.20;101454.00;;;;5067664;28;20238;-77
2023/05/12 01:35:12;;;;;;;2.97;2.08;;;;;18.20;101458.00;;;;5069488;28;20233;-77
2023/05/12 01:37:40;;;;;;;2.03;1.75;;;;;18.20;101456.00;;;;5060213;28;20694;-77
2023/05/12 01:40:08;;;;;;;2.15;1.70;;;;;18.10;101455.00;;;;5053621;28;20199;-77
2023/05/12 01:42:35;;;;;;;1.95;1.60;;;;;18.10;101452.00;;;;5065430;28;20200;-77
2023/05/12 01:45:04;;;;;;;1.65;1.50;;;;;18.10;101454.00;;;;5064630;28;20205;-78
2023/05/12 01:47:32;;;;;;;2.75;1.40;;;;;18.10;101453.00;;;;5071225;28;20577;-77
2023/05/12 01:49:59;;;;;;;4.22;2.17;;;;;18.10;101447.00;;;;5068804;28;20688;-77
2023/05/12 01:52:26;;;;;;;2.10;1.70;;;;;18.10;101450.00;;;;5053560;28;20203;-77
2023/05/12 01:54:54;;;;;;;2.15;1.90;;;;;18.10;101453.00;;;;5051157;28;20199;-77
2023/05/12 01:57:21;;;;;;;3.65;2.10;;;;;18.10;101454.00;;;;5051183;28;20559;-77
2023/05/12 01:59:48;;;;;;;2.10;1.85;;;;;18.10;101456.00;;;;5064413;28;20584;-77
2023/05/12 02:02:17;;;;;;;2.30;1.90;;;;;18.10;101459.00;;;;5050616;28;20221;-77
2023/05/12 02:04:44;;;;;;;2.30;1.58;;;;;18.10;101457.00;;;;5050268;28;20195;-76
2023/05/12 02:07:11;;;;;;;1.85;1.48;;;;;18.10;101457.00;;;;5051102;28;20205;-77
2023/05/12 02:09:38;;;;;;;1.70;1.30;;;;;18.10;101454.00;;;;5050399;28;20200;-77
2023/05/12 02:12:06;;;;;;;2.60;1.85;;;;;18.10;101451.00;;;;5050534;28;20572;-77
2023/05/12 02:14:34;;;;;;;1.67;1.23;;;;;18.10;101458.00;;;;5050654;28;20978;-77
2023/05/12 02:17:02;;;;;;;1.50;1.20;;;;;18.10;101448.00;;;;5050693;28;20612;-77
2023/05/12 02:19:30;;;;;;;1.40;1.20;;;;;18.10;101453.00;;;;5051280;28;20211;-77
2023/05/12 02:21:58;;;;;;;1.50;1.30;;;;;18.10;101458.00;;;;5050381;28;20199;-78
2023/05/12 02:24:25;;;;;;;1.70;1.50;;;;;18.10;101447.00;;;;5051360;28;20222;-77
2023/05/12 02:26:52;;;;;;;1.40;1.17;;;;;18.10;101454.00;;;;5050321;28;20195;-77
2023/05/12 02:29:19;;;;;;;1.60;0.98;;;;;18.10;101448.00;;;;5049884;28;20195;-77
2023/05/12 02:31:47;;;;;;;1.67;1.20;;;;;18.10;101455.00;;;;5050170;28;20196;-77
2023/05/12 02:34:14;;;;;;;1.20;1.08;;;;;18.10;101449.00;;;;5050188;28;20306;-77
2023/05/12 02:36:43;;;;;;;1.00;0.90;;;;;18.10;101441.00;;;;5057117;28;20242;-77
2023/05/12 02:39:10;;;;;;;1.58;1.40;;;;;18.10;101441.00;;;;5059622;28;20199;-78
2023/05/12 02:41:37;;;;;;;1.27;0.95;;;;;18.10;101449.00;;;;5068337;28;20847;-77
2023/05/12 02:44:05;;;;;;;2.28;1.80;;;;;18.10;101443.00;;;;5066628;28;20716;-77
2023/05/12 02:46:33;;;;;;;1.67;1.30;;;;;18.10;101439.00;;;;5070479;28;20195;-77
2023/05/12 02:49:00;;;;;;;1.42;1.33;;;;;18.10;101435.00;;;;5069678;28;20206;-77
2023/05/12 02:51:27;;;;;;;1.48;1.23;;;;;18.10;101437.00;;;;5067318;28;20206;-77
2023/05/12 02:53:56;;;;;;;1.83;1.42;;;;;18.00;101427.00;;;;5049725;28;20605;-77
2023/05/12 02:56:23;;;;;;;3.90;1.50;;;;;18.00;101433.00;;;;5064415;28;20195;-77
2023/05/12 02:58:52;;;;;;;2.08;1.05;;;;;18.00;101426.00;;;;5066972;28;20199;-77
2023/05/12 03:01:20;;;;;;;1.73;1.45;;;;;18.00;101429.00;;;;5068425;28;20202;-78
2023/05/12 03:03:47;;;;;;;1.98;1.50;;;;;18.00;101425.00;;;;5069527;28;20198;-77
2023/05/12 03:06:14;;;;;;;1.90;1.52;;;;;18.00;101429.00;;;;5068718;28;20194;-77
2023/05/12 03:08:41;;;;;;;2.42;1.42;;;;;18.00;101428.00;;;;5066758;28;20210;-77
2023/05/12 03:11:10;;;;;;;2.40;1.55;;;;;18.00;101432.00;;;;5055703;28;20195;-77
2023/05/12 03:13:37;;;;;;;2.08;1.60;;;;;18.00;101427.00;;;;5054452;28;20223;-77
2023/05/12 03:16:05;;;;;;;2.45;1.98;;;;;17.90;101426.00;;;;5059265;28;20207;-77
2023/05/12 03:18:32;;;;;;;2.63;1.67;;;;;17.90;101431.00;;;;5049101;28;20203;-77
2023/05/12 03:21:00;;;;;;;2.33;1.70;;;;;17.90;101434.00;;;;5048982;28;20200;-77
2023/05/12 03:23:27;;;;;;;3.38;2.38;;;;;17.90;101429.00;;;;5050049;28;20208;-77
2023/05/12 03:25:54;;;;;;;3.17;2.28;;;;;17.90;101425.00;;;;5049875;28;20207;-77
2023/05/12 03:28:23;;;;;;;3.33;2.60;;;;;17.90;101412.00;;;;5048718;28;20192;-77
2023/05/12 03:30:51;;;;;;;2.67;2.20;;;;;17.90;101419.00;;;;5067472;28;20634;-77
2023/05/12 03:33:18;;;;;;;4.55;2.25;;;;;17.90;101422.00;;;;5067838;28;20281;-77
2023/05/12 03:35:45;;;;;;;3.03;2.55;;;;;17.90;101408.00;;;;5068285;28;20233;-77
2023/05/12 03:38:13;;;;;;;4.40;3.22;;;;;17.90;101410.00;;;;5054287;28;20223;-76
2023/05/12 03:40:40;;;;;;;3.03;2.42;;;;;17.90;101418.00;;;;5062966;28;20195;-77
2023/05/12 03:43:07;;;;;;;4.07;2.58;;;;;17.90;101411.00;;;;5049026;28;20211;-77
2023/05/12 03:45:36;;;;;;;2.85;2.47;;;;;17.90;101410.00;;;;5048880;28;20210;-77
2023/05/12 03:48:03;;;;;;;4.53;3.30;;;;;17.90;101417.00;;;;5048643;28;20207;-77
2023/05/12 03:50:30;;;;;;;5.13;3.42;;;;;17.90;101412.00;;;;5057736;28;20206;-77
2023/05/12 03:52:58;;;;;;;4.57;3.25;;;;;17.90;101413.00;;;;5055542;28;20430;-77
2023/05/12 03:55:25;;;;;;;5.25;3.35;;;;;17.90;101418.00;;;;5054950;28;20203;-77
2023/05/12 03:57:52;;;;;;;5.10;3.53;;;;;17.90;101422.00;;;;5048455;28;20210;-77
2023/05/12 04:00:20;;;;;;;5.38;3.08;;;;;17.90;101412.00;;;;5048294;28;20211;-77
2023/05/12 04:02:49;;;;;;;5.63;3.92;;;;;17.90;101406.00;;;;5048237;28;20209;-77
2023/05/12 04:05:17;;;;;;;4.75;3.58;;;;;17.90;101412.00;;;;5047792;28;20198;-77
2023/05/12 04:07:44;;;;;;;4.63;3.08;;;;;17.90;101414.00;;;;5048670;28;20661;-77
2023/05/12 04:10:11;;;;;;;5.97;3.40;;;;;17.90;101415.00;;;;5047751;28;20200;-77
2023/05/12 04:12:38;;;;;;;5.75;4.38;;;;;17.90;101417.00;;;;5047472;28;20207;-77
2023/05/12 04:15:07;;;;;;;5.18;3.58;;;;;17.90;101410.00;;;;5048870;28;20227;-77
2023/05/12 04:17:34;;;;;;;5.70;4.25;;;;;18.00;101407.00;;;;5048360;28;20766;-77
2023/05/12 04:20:03;;;;;;;6.38;4.47;;;;;17.90;101403.00;;;;5046806;28;20290;-77
2023/05/12 04:22:30;;;;;;;7.30;5.20;;;;;18.00;101410.00;;;;5048836;28;20207;-77
2023/05/12 04:24:58;;;;;;;6.63;5.30;;;;;18.00;101411.00;;;;5047714;28;20203;-77
2023/05/12 04:27:25;;;;;;;8.05;4.15;;;;;18.00;101409.00;;;;5047604;28;20203;-78
2023/05/12 04:29:52;;;;;;;6.35;5.10;;;;;18.00;101413.00;;;;5048477;28;20203;-78
2023/05/12 04:32:20;;;;;;;7.50;4.88;;;;;18.00;101415.00;;;;5058763;28;20209;-78
2023/05/12 04:34:47;;;;;;;8.73;6.07;;;;;18.00;101416.00;;;;5055431;28;20266;-77
2023/05/12 04:37:16;;;;;;;7.95;5.63;;;;;18.00;101427.00;;;;5051833;28;20265;-77
2023/05/12 04:39:43;;;;;;;8.63;5.43;;;;;18.00;101426.00;;;;5058891;28;20203;-78
2023/05/12 04:42:10;;;;;;;7.50;5.20;;;;;18.10;101421.00;;;;5067081;28;20187;-78
2023/05/12 04:44:38;;;;;;;7.40;5.35;;;;;18.10;101428.00;;;;5048084;28;20199;-78
2023/05/12 04:47:05;;;;;;;8.32;5.82;;;;;18.10;101426.00;;;;5047723;28;20286;-78
2023/05/12 04:49:32;;;;;;;7.72;4.82;;;;;18.10;101421.00;;;;5052416;28;20203;-78
2023/05/12 04:52:00;;;;;;;8.35;5.93;;;;;18.20;101432.00;;;;5056211;28;20203;-78
2023/05/12 04:54:28;;;;;;;7.68;5.30;;;;;18.20;101434.00;;;;5054266;28;20227;-78
2023/05/12 04:56:56;;;;;;;7.63;5.47;;;;;18.20;101433.00;;;;5053178;28;20196;-78
2023/05/12 04:59:23;;;;;;;12.13;6.70;;;;;18.20;101438.00;;;;5053999;28;20207;-78
2023/05/12 05:01:51;;;;;;;12.10;7.25;;;;;18.20;101442.00;;;;5059864;28;20213;-78
2023/05/12 05:04:20;;;;;;;8.23;5.82;;;;;18.20;101442.00;;;;5053913;28;20187;-79
2023/05/12 05:06:47;;;;;;;9.23;5.78;;;;;18.20;101447.00;;;;5058113;28;20587;-78
2023/05/12 05:09:14;;;;;;;10.48;6.68;;;;;18.30;101451.00;;;;5056936;28;20207;-78
2023/05/12 05:11:43;;;;;;;12.38;7.97;;;;;18.30;101460.00;;;;5047754;28;20207;-78
2023/05/12 05:14:11;;;;;;;10.95;7.57;;;;;18.30;101464.00;;;;5054305;28;20227;-78
2023/05/12 05:16:38;;;;;;;10.77;7.30;;;;;18.30;101460.00;;;;5056387;28;20196;-78
2023/05/12 05:19:05;;;;;;;10.68;7.57;;;;;18.30;101468.00;;;;5047633;28;20196;-78
2023/05/12 05:21:33;;;;;;;11.48;7.03;;;;;18.40;101474.00;;;;5066891;28;20202;-78
2023/05/12 05:24:00;;;;;;;10.40;7.53;;;;;18.40;101475.00;;;;5066728;28;20194;-78
2023/05/12 05:26:27;;;;;;;12.73;7.25;;;;;18.40;101472.00;;;;5062347;28;20191;-78
2023/05/12 05:28:56;;;;;;;11.25;7.18;;;;;18.40;101473.00;;;;5054940;28;20665;-78
2023/05/12 05:31:23;;;;;;;12.45;8.38;;;;;18.40;101469.00;;;;5066581;28;20207;-78
2023/05/12 05:33:51;;;;;;;10.57;7.10;;;;;18.50;101464.00;;;;5052507;28;20223;-77
2023/05/12 05:36:18;;;;;;;12.48;8.13;;;;;18.50;101465.00;;;;5051032;28;20199;-78
2023/05/12 05:38:45;;;;;;;12.15;8.23;;;;;18.50;101463.00;;;;5064294;28;20211;-77
2023/05/12 05:41:12;;;;;;;11.25;7.85;;;;;18.60;101471.00;;;;5070341;28;20272;-78
2023/05/12 05:43:40;;;;;;;10.93;7.82;;;;;18.60;101473.00;;;;5054266;28;20196;-77
2023/05/12 05:46:08;;;;;;;11.38;8.25;;;;;18.60;101468.00;;;;5059273;28;20198;-77
2023/05/12 05:48:36;;;;;;;13.00;8.80;;;;;18.70;101470.00;;;;5062119;28;20198;-79
2023/05/12 05:51:04;;;;;;;11.13;8.05;;;;;18.70;101482.00;;;;5057276;28;20199;-79
2023/05/12 05:53:31;;;;;;;13.27;9.00;;;;;18.70;101482.00;;;;5057084;28;20571;-78
2023/05/12 05:55:58;;;;;;;13.65;8.27;;;;;18.70;101480.00;;;;5059835;28;20694;-79
2023/05/12 05:58:26;;;;;;;10.98;7.80;;;;;18.80;101489.00;;;;5061505;28;20187;-79
2023/05/12 06:00:53;;;;;;;11.15;7.85;;;;;18.80;101494.00;;;;5054921;28;20195;-79
2023/05/12 06:03:24;;;;;;;13.52;9.35;;;;;18.80;101491.00;;;;5062329;28;20204;-79
2023/05/12 06:05:51;;;;;;;11.27;8.32;;;;;18.80;101486.00;;;;5051517;28;20258;-78
2023/05/12 06:08:19;;;;;;;13.20;8.45;;;;;18.80;101496.00;;;;5065989;28;20210;-78
2023/05/12 06:10:46;;;;;;;11.70;8.25;;;;;18.80;101494.00;;;;5070217;28;20199;-78
2023/05/12 06:13:13;;;;;;;11.57;8.30;;;;;18.90;101495.00;;;;5069477;28;20187;-79
2023/05/12 06:15:41;;;;;;;13.93;9.63;;;;;18.90;101495.00;;;;5067749;28;20246;-78
2023/05/12 06:18:08;;;;;;;15.63;9.50;;;;;18.90;101507.00;;;;5050144;28;20203;-78
2023/05/12 06:20:37;;;;;;;12.80;9.18;;;;;18.90;101502.00;;;;5066299;28;20207;-78
2023/05/12 06:23:04;;;;;;;13.88;9.57;;;;;19.00;101503.00;;;;5055869;28;20207;-79
2023/05/12 06:25:32;;;;;;;13.25;9.18;;;;;19.00;101504.00;;;;5050191;28;20200;-79
2023/05/12 06:27:59;;;;;;;13.50;9.27;;;;;19.10;101512.00;;;;5049573;28;20203;-79
2023/05/12 06:30:27;;;;;;;15.18;9.82;;;;;19.10;101514.00;;;;5052852;28;20226;-79
2023/05/12 06:32:54;;;;;;;13.68;7.95;;;;;19.20;101518.00;;;;5055082;28;20204;-78
2023/05/12 06:35:22;;;;;;;13.73;9.20;;;;;19.20;101518.00;;;;5062931;28;20656;-78
2023/05/12 06:37:50;;;;;;;15.73;10.13;;;;;19.20;101522.00;;;;5050343;28;20674;-79
2023/05/12 06:40:18;;;;;;;12.82;9.20;;;;;19.30;101518.00;;;;5061657;28;20214;-79
2023/05/12 06:42:45;;;;;;;11.70;9.15;;;;;19.30;101521.00;;;;5063726;28;20200;-79
2023/05/12 06:45:12;;;;;;;18.70;10.20;;;;;19.40;101525.00;;;;5049829;28;20207;-79
2023/05/12 06:47:40;;;;;;;13.98;9.45;;;;;19.40;101529.00;;;;5050111;28;20661;-79
2023/05/12 06:50:08;;;;;;;13.73;9.43;;;;;19.40;101541.00;;;;5051162;28;20195;-79
2023/05/12 06:52:36;;;;;;;14.25;9.77;;;;;19.50;101538.00;;;;5061804;28;20217;-79
2023/05/12 06:55:05;;;;;;;14.25;10.18;;;;;19.60;101540.00;;;;5058315;28;20238;-79
2023/05/12 06:57:33;;;;;;;13.10;9.15;;;;;19.60;101539.00;;;;5050219;28;20212;-77
2023/05/12 07:00:02;;;;;;;14.13;8.98;;;;;19.70;101546.00;;;;5049557;28;20214;-79
2023/05/12 07:02:29;;;;;;;14.18;9.43;;;;;19.70;101533.00;;;;5057419;28;20201;-78
2023/05/12 07:04:56;;;;;;;13.10;9.05;;;;;19.80;101539.00;;;;5055454;28;20911;-77
2023/05/12 07:07:24;;;;;;;13.43;9.80;;;;;19.80;101539.00;;;;5061366;28;20214;-78
2023/05/12 07:09:51;;;;;;;17.45;10.20;;;;;19.90;101543.00;;;;5053507;28;20572;-78
2023/05/12 07:12:20;;;;;;;14.27;10.02;;;;;19.90;101551.00;;;;5068352;28;20209;-79
2023/05/12 07:14:47;;;;;;;13.80;9.77;;;;;20.00;101540.00;;;;5068172;28;20230;-78
2023/05/12 07:17:14;;;;;;;12.32;8.95;;;;;20.00;101550.00;;;;5069655;28;20191;-78
2023/05/12 07:19:42;;;;;;;12.50;9.20;;;;;20.10;101547.00;;;;5068978;28;20202;-79
2023/05/12 07:22:09;;;;;;;12.40;8.60;;;;;20.10;101548.00;;;;5060236;28;20210;-78
2023/05/12 07:24:37;;;;;;;12.98;9.32;;;;;20.20;101546.00;;;;5049005;28;20208;-78
2023/05/12 07:27:05;;;;;;;13.85;10.50;;;;;20.30;101559.00;;;;5049167;28;20219;-78
2023/05/12 07:29:33;;;;;;;12.65;9.50;;;;;20.30;101553.00;;;;5055729;28;20345;-78
2023/05/12 07:32:01;;;;;;;13.80;10.18;;;;;20.40;101562.00;;;;5049874;28;20644;-79
2023/05/12 07:34:28;;;;;;;13.75;9.88;;;;;20.50;101562.00;;;;5048817;28;20603;-78
2023/05/12 07:36:55;;;;;;;12.25;9.00;;;;;20.60;101566.00;;;;5048282;28;20592;-79
2023/05/12 07:39:23;;;;;;;16.40;10.55;;;;;20.60;101569.00;;;;5057843;28;20691;-78
2023/05/12 07:41:52;;;;;;;12.35;9.48;;;;;20.70;101568.00;;;;5050088;28;20207;-78
2023/05/12 07:44:20;;;;;;;13.65;9.60;;;;;20.80;101565.00;;;;5047411;28;20261;-79
2023/05/12 07:46:48;;;;;;;13.02;9.20;;;;;20.90;101570.00;;;;5049205;28;20203;-78
2023/05/12 07:49:16;;;;;;;13.05;9.23;;;;;21.00;101567.00;;;;5053484;28;20207;-78
2023/05/12 07:51:43;;;;;;;10.82;8.15;;;;;21.10;101574.00;;;;5064627;28;20203;-81
2023/05/12 07:54:10;;;;;;;11.25;8.27;;;;;21.20;101578.00;;;;5059638;28;20210;-78
2023/05/12 07:56:37;;;;;;;10.68;8.23;;;;;21.40;101586.00;;;;5067621;28;20213;-78
2023/05/12 07:59:05;;;;;;;12.70;8.25;;;;;21.40;101581.00;;;;5054988;28;20220;-79
2023/05/12 08:01:33;;;;;;;11.90;8.90;;;;;21.60;101583.00;;;;5049557;28;20227;-79
2023/05/12 08:04:02;;;;;;;11.13;8.02;;;;;21.70;101589.00;;;;5049506;28;20194;-79
2023/05/12 08:06:29;;;;;;;10.93;8.27;;;;;21.80;101582.00;;;;5065587;28;20545;-79
2023/05/12 08:08:57;;;;;;;8.93;7.30;;;;;21.90;101589.00;;;;5056132;28;20617;-79
2023/05/12 08:11:25;;;;;;;9.18;7.32;;;;;22.00;101582.00;;;;5052567;28;20646;-79
2023/05/12 08:13:52;;;;;;;9.80;7.65;;;;;22.00;101581.00;;;;5055683;28;20677;-79
2023/05/12 08:16:19;;;;;;;9.70;7.72;;;;;22.10;101587.00;;;;5047968;28;20969;-79
2023/05/12 08:18:46;;;;;;;8.80;7.07;;;;;22.20;101579.00;;;;5052538;28;20199;-79
2023/05/12 08:21:15;;;;;;;9.35;7.68;;;;;22.30;101587.00;;;;5050915;28;20605;-80
2023/05/12 08:23:43;;;;;;;8.70;7.03;;;;;22.30;101582.00;;;;5056042;28;20210;-79
2023/05/12 08:26:10;;;;;;;7.50;5.97;;;;;22.50;101589.00;;;;5053210;28;20254;-79
2023/05/12 08:28:38;;;;;;;8.93;6.80;;;;;22.60;101597.00;;;;5048927;28;20672;-79
2023/05/12 08:31:05;;;;;;;8.52;5.65;;;;;22.70;101592.00;;;;5048236;28;20591;-79
2023/05/12 08:33:34;;;;;;;7.95;6.32;;;;;22.70;101596.00;;;;5057034;28;20203;-79
2023/05/12 08:36:02;;;;;;;7.10;6.00;;;;;22.90;101604.00;;;;5048654;28;20235;-78
2023/05/12 08:38:31;;;;;;;7.93;6.32;;;;;22.90;101595.00;;;;5049557;28;20739;-79
2023/05/12 08:41:10;;;;;;;9.57;6.55;;;;;23.00;101607.00;;;;5048261;28;20200;-79
2023/05/12 08:43:42;;;;;;;7.15;5.93;;;;;23.10;101614.00;;;;5062859;28;20201;-79
2023/05/12 08:46:12;;;;;;;7.50;5.30;;;;;23.20;101615.00;;;;5067817;28;20203;-79
2023/05/12 08:48:40;;;;;;;5.43;4.63;;;;;23.40;101613.00;;;;5048713;28;20203;-79
2023/05/12 08:51:10;;;;;;;6.07;4.93;;;;;23.50;101612.00;;;;5054466;28;20645;-79
2023/05/12 08:53:40;;;;;;;6.47;4.90;;;;;23.60;101615.00;;;;5048095;28;20730;-79
2023/05/12 08:56:09;;;;;;;5.97;4.57;;;;;23.70;101616.00;;;;5051930;28;20229;-80
2023/05/12 08:58:37;;;;;;;5.80;4.68;;;;;23.90;101632.00;;;;5055396;28;20202;-78
2023/05/12 09:01:06;;;;;;;6.13;5.05;;;;;24.00;101630.00;;;;5056212;28;20200;-79
2023/05/12 09:03:34;;;;;;;5.32;4.38;;;;;24.10;101630.00;;;;5060082;28;20191;-80
2023/05/12 09:06:03;;;;;;;6.90;4.65;;;;;24.30;101628.00;;;;5055643;28;20253;-79
2023/05/12 09:08:32;;;;;;;6.47;5.30;;;;;24.40;101628.00;;;;5051797;28;20467;-79
2023/05/12 09:11:01;;;;;;;6.75;5.03;;;;;24.50;101637.00;;;;5062619;28;20853;-80
2023/05/12 09:13:35;;;;;;;6.80;5.35;;;;;24.70;101632.00;;;;5053116;28;20255;-79
2023/05/12 09:16:04;;;;;;;5.43;4.45;;;;;24.80;101631.00;;;;5051131;28;20231;-79
2023/05/12 09:18:48;;;;;;;4.88;4.35;;;;;24.80;101636.00;;;;5061310;28;20290;-79
2023/05/12 09:21:15;;;;;;;5.13;3.97;;;;;24.90;101632.00;;;;5058645;28;20198;-80
2023/05/12 09:23:56;;;;;;;5.47;4.65;;;;;25.00;101640.00;;;;5069792;28;20206;-79
2023/05/12 09:26:25;;;;;;;5.57;4.30;;;;;25.10;101637.00;;;;5060868;28;20203;-80
2023/05/12 09:28:54;;;;;;;5.15;4.60;;;;;25.20;101642.00;;;;5065840;28;20292;-79
2023/05/12 09:31:23;;;;;;;4.70;4.22;;;;;25.20;101641.00;;;;5053282;28;20282;-79
2023/05/12 09:33:51;;;;;;;5.78;4.85;;;;;25.20;101649.00;;;;5070776;28;20427;-79
2023/05/12 09:36:20;;;;;;;3.20;2.90;;;;;25.20;101648.00;;;;5056458;28;20215;-79
2023/05/12 09:38:58;;;;;;;4.93;3.60;;;;;25.30;101651.00;;;;5067185;28;20605;-78
2023/05/12 09:41:27;;;;;;;3.53;3.03;;;;;25.30;101650.00;;;;5055731;28;20294;-79
2023/05/12 09:43:55;;;;;;;2.70;2.50;;;;;25.30;101655.00;;;;5060194;28;20668;-79
2023/05/12 09:46:24;;;;;;;3.90;3.35;;;;;25.30;101656.00;;;;5069811;28;21039;-79
2023/05/12 09:48:55;;;;;;;3.83;2.75;;;;;25.30;101666.00;;;;5053726;28;20204;-79
2023/05/12 09:51:22;;;;;;;3.65;3.28;;;;;25.40;101666.00;;;;5051169;28;20287;-80
2023/05/12 09:53:50;;;;;;;3.33;3.03;;;;;25.40;101661.00;;;;5050338;28;20203;-79
2023/05/12 09:56:18;;;;;;;4.18;3.45;;;;;25.40;101676.00;;;;5051117;28;20723;-79
2023/05/12 09:58:49;;;;;;;6.78;3.83;;;;;25.40;101667.00;;;;5055018;28;20207;-80
2023/05/12 10:01:19;;;;;;;4.15;3.08;;;;;25.50;101671.00;;;;5065942;28;20199;-80
2023/05/12 10:03:50;;;;;;;4.32;3.30;;;;;25.50;101660.00;;;;5058511;28;20191;-80
2023/05/12 10:06:24;;;;;;;3.97;3.58;;;;;25.50;101664.00;;;;5065915;28;20199;-81
2023/05/12 10:08:56;;;;;;;4.07;2.55;;;;;25.60;101664.00;;;;5051351;28;20199;-81
2023/05/12 10:11:24;;;;;;;3.28;2.65;;;;;25.70;101670.00;;;;5053702;28;20653;-81
2023/05/12 10:13:53;;;;;;;2.70;2.47;;;;;25.70;101673.00;;;;5066360;28;20198;-79
2023/05/12 10:16:21;;;;;;;3.53;2.83;;;;;25.70;101666.00;;;;5068924;28;20619;-81
2023/05/12 10:18:50;;;;;;;3.58;2.70;;;;;25.80;101671.00;;;;5054956;28;20589;-80
2023/05/12 10:21:17;;;;;;;2.78;2.38;;;;;25.80;101670.00;;;;5050681;28;20673;-81
2023/05/12 10:23:45;;;;;;;3.03;2.63;;;;;25.90;101665.00;;;;5049780;28;20193;-81
2023/05/12 10:26:13;;;;;;;2.72;2.33;;;;;26.00;101668.00;;;;5060209;28;20204;-81
2023/05/12 10:28:41;;;;;;;4.53;2.55;;;;;26.00;101671.00;;;;5053953;28;20201;-81
2023/05/12 10:31:11;;;;;;;3.03;2.63;;;;;26.00;101669.00;;;;5063619;28;20195;-81
2023/05/12 10:33:38;;;;;;;2.67;2.30;;;;;26.10;101668.00;;;;5052795;28;20207;-81
2023/05/12 10:36:16;;;;;;;2.88;2.25;;;;;26.10;101669.00;;;;5060161;28;20681;-81
2023/05/12 10:38:43;;;;;;;2.33;2.10;;;;;26.20;101672.00;;;;5061463;28;20218;-82
2023/05/12 10:41:11;;;;;;;5.68;3.05;;;;;26.20;101663.00;;;;5059910;28;20206;-84
2023/05/12 10:43:40;;;;;;;5.25;2.42;;;;;26.20;101669.00;;;;5053376;28;20195;-83
2023/05/12 10:46:15;;;;;;;3.95;2.42;;;;;26.20;101672.00;;;;5060000;28;20325;-81
2023/05/12 10:48:54;;;;;;;2.85;2.58;;;;;26.10;101673.00;;;;5059152;28;20664;-81
2023/05/12 10:51:23;;;;;;;2.65;2.45;;;;;26.20;101680.00;;;;5057679;28;20610;-82
2023/05/12 10:53:56;;;;;;;2.17;1.73;;;;;26.20;101682.00;;;;5057958;28;20199;-80
2023/05/12 10:56:26;;;;;;;3.00;2.33;;;;;26.20;101682.00;;;;5047284;28;20235;-83
2023/05/12 10:59:13;;;;;;;2.70;2.00;;;;;26.10;101677.00;;;;5048953;28;20198;-81
2023/05/12 11:01:43;;;;;;;2.42;2.05;;;;;26.20;101682.00;;;;5049325;28;20203;-83
2023/05/12 11:04:11;;;;;;;2.00;1.80;;;;;26.20;101673.00;;;;5065995;28;20256;-82
2023/05/12 11:06:39;;;;;;;2.30;1.92;;;;;26.20;101683.00;;;;5052979;28;20196;-83
2023/05/12 11:09:07;;;;;;;2.55;1.88;;;;;26.30;101679.00;;;;5055892;28;20673;-82
2023/05/12 11:11:34;;;;;;;3.05;1.52;;;;;26.30;101685.00;;;;5058031;28;20199;-82
2023/05/12 11:14:02;;;;;;;1.70;1.60;;;;;26.40;101677.00;;;;5055133;28;20203;-82
2023/05/12 11:16:29;;;;;;;2.88;1.60;;;;;26.50;101689.00;;;;5066922;28;20226;-83
2023/05/12 11:19:05;;;;;;;1.48;1.38;;;;;26.50;101680.00;;;;5055850;28;20199;-82
2023/05/12 11:21:33;;;;;;;2.40;1.85;;;;;26.60;101681.00;;;;5061622;28;20195;-83
2023/05/12 11:24:02;;;;;;;1.70;1.60;;;;;26.70;101687.00;;;;5057513;28;20187;-83
2023/05/12 11:26:29;;;;;;;2.75;2.20;;;;;26.70;101688.00;;;;5055674;28;20215;-82
2023/05/12 11:28:58;;;;;;;2.00;1.80;;;;;26.70;101697.00;;;;5057362;28;20568;-83
2023/05/12 11:31:25;;;;;;;1.60;1.40;;;;;26.80;101686.00;;;;5061650;28;20198;-82
2023/05/12 11:34:04;;;;;;;2.17;1.60;;;;;26.90;101688.00;;;;5048782;28;20196;-83
2023/05/12 11:36:37;;;;;;;1.75;1.60;;;;;27.00;101691.00;;;;5059125;28;20709;-84
2023/05/12 11:39:05;;;;;;;2.10;1.50;;;;;27.10;101693.00;;;;5063638;28;20206;-83
2023/05/12 11:41:33;;;;;;;2.28;2.08;;;;;27.20;101698.00;;;;5053080;28;20188;-82
2023/05/12 11:44:12;;;;;;;2.83;2.15;;;;;27.20;101692.00;;;;5052350;28;20207;-84
2023/05/12 11:46:40;;;;;;;1.77;1.67;;;;;27.30;101703.00;;;;5058527;28;20191;-83
2023/05/12 11:49:11;;;;;;;2.75;1.45;;;;;27.20;101692.00;;;;5054843;28;20397;-85
2023/05/12 11:51:42;;;;;;;1.85;1.60;;;;;27.20;101692.00;;;;5056716;28;20199;-83
2023/05/12 11:54:10;;;;;;;3.08;1.95;;;;;27.30;101691.00;;;;5052534;28;20226;-84
2023/05/12 11:56:37;;;;;;;1.88;1.40;;;;;27.30;101701.00;;;;5058517;28;20300;-82
2023/05/12 11:59:05;;;;;;;2.78;1.98;;;;;27.20;101702.00;;;;5062522;28;20193;-82
2023/05/12 12:01:33;;;;;;;2.17;1.65;;;;;27.30;101706.00;;;;5059544;28;20203;-83
2023/05/12 12:04:00;;;;;;;2.25;1.70;;;;;27.30;101703.00;;;;5059359;28;20226;-81
2023/05/12 12:06:29;;;;;;;1.67;1.58;;;;;27.40;101693.00;;;;5067473;28;20199;-83
2023/05/12 12:08:58;;;;;;;1.52;1.42;;;;;27.50;101696.00;;;;5064337;28;20206;-84
2023/05/12 12:11:27;;;;;;;2.17;1.50;;;;;27.60;101712.00;;;;5048361;28;20669;-84